sensor_id;sensor_type;location;lat;lon;timestamp;P1;durP1;ratioP1;P2;durP2;ratioP2
21192;SDS011;10754;51.106;7.164;2023-04-25T00:01:10;3.23;;;2.30;;
21192;SDS011;10754;51.106;7.164;2023-04-25T00:03:37;4.90;;;2.40;;
21192;SDS011;10754;51.106;7.164;2023-04-25T00:06:03;6.03;;;2.70;;
21192;SDS011;10754;51.106;7.164;2023-04-25T00:08:29;3.43;;;2.37;;
21192;SDS011;10754;51.106;7.164;2023-04-25T00:10:56;3.93;;;1.93;;
21192;SDS011;10754;51.106;7.164;2023-04-25T00:13:22;4.07;;;2.50;;
21192;SDS011;10754;51.106;7.164;2023-04-25T00:15:47;4.07;;;2.47;;
21192;SDS011;10754;51.106;7.164;2023-04-25T00:18:13;4.97;;;2.40;;
21192;SDS011;10754;51.106;7.164;2023-04-25T00:20:39;2.83;;;2.40;;
21192;SDS011;10754;51.106;7.164;2023-04-25T00:23:05;4.00;;;2.30;;
21192;SDS011;10754;51.106;7.164;2023-04-25T00:25:31;4.10;;;1.97;;
21192;SDS011;10754;51.106;7.164;2023-04-25T00:27:56;4.27;;;2.23;;
21192;SDS011;10754;51.106;7.164;2023-04-25T00:30:22;4.67;;;2.43;;
21192;SDS011;10754;51.106;7.164;2023-04-25T00:32:47;3.57;;;2.70;;
21192;SDS011;10754;51.106;7.164;2023-04-25T00:35:13;3.63;;;1.90;;
21192;SDS011;10754;51.106;7.164;2023-04-25T00:37:39;5.00;;;2.20;;
21192;SDS011;10754;51.106;7.164;2023-04-25T00:40:06;5.87;;;2.23;;
21192;SDS011;10754;51.106;7.164;2023-04-25T00:42:32;2.60;;;2.20;;
21192;SDS011;10754;51.106;7.164;2023-04-25T00:44:58;4.90;;;2.60;;
21192;SDS011;10754;51.106;7.164;2023-04-25T00:47:25;4.67;;;2.23;;
21192;SDS011;10754;51.106;7.164;2023-04-25T00:49:51;3.57;;;2.17;;
21192;SDS011;10754;51.106;7.164;2023-04-25T00:52:18;4.17;;;2.17;;
21192;SDS011;10754;51.106;7.164;2023-04-25T00:54:44;5.23;;;2.40;;
21192;SDS011;10754;51.106;7.164;2023-04-25T00:57:09;2.57;;;2.03;;
21192;SDS011;10754;51.106;7.164;2023-04-25T00:59:36;3.77;;;2.30;;
21192;SDS011;10754;51.106;7.164;2023-04-25T01:02:03;3.53;;;2.10;;
21192;SDS011;10754;51.106;7.164;2023-04-25T01:04:29;2.37;;;2.10;;
21192;SDS011;10754;51.106;7.164;2023-04-25T01:06:55;4.57;;;2.00;;
21192;SDS011;10754;51.106;7.164;2023-04-25T01:09:22;4.83;;;2.27;;
21192;SDS011;10754;51.106;7.164;2023-04-25T01:11:48;4.63;;;2.33;;
21192;SDS011;10754;51.106;7.164;2023-04-25T01:14:14;3.87;;;2.53;;
21192;SDS011;10754;51.106;7.164;2023-04-25T01:16:39;3.10;;;2.20;;
21192;SDS011;10754;51.106;7.164;2023-04-25T01:19:08;3.73;;;2.60;;
21192;SDS011;10754;51.106;7.164;2023-04-25T01:21:38;5.57;;;2.53;;
21192;SDS011;10754;51.106;7.164;2023-04-25T01:24:04;4.23;;;2.37;;
21192;SDS011;10754;51.106;7.164;2023-04-25T01:26:30;6.20;;;2.13;;
21192;SDS011;10754;51.106;7.164;2023-04-25T01:28:56;7.13;;;3.27;;
21192;SDS011;10754;51.106;7.164;2023-04-25T01:31:22;3.70;;;2.37;;
21192;SDS011;10754;51.106;7.164;2023-04-25T01:33:48;3.57;;;2.27;;
21192;SDS011;10754;51.106;7.164;2023-04-25T01:36:14;8.03;;;3.20;;
21192;SDS011;10754;51.106;7.164;2023-04-25T01:38:40;6.67;;;3.20;;
21192;SDS011;10754;51.106;7.164;2023-04-25T01:41:06;5.07;;;2.80;;
21192;SDS011;10754;51.106;7.164;2023-04-25T01:43:32;6.63;;;3.20;;
21192;SDS011;10754;51.106;7.164;2023-04-25T01:45:58;5.97;;;3.50;;
21192;SDS011;10754;51.106;7.164;2023-04-25T01:48:24;4.17;;;2.60;;
21192;SDS011;10754;51.106;7.164;2023-04-25T01:50:49;5.23;;;3.03;;
21192;SDS011;10754;51.106;7.164;2023-04-25T01:53:15;6.67;;;3.20;;
21192;SDS011;10754;51.106;7.164;2023-04-25T01:55:41;6.87;;;2.90;;
21192;SDS011;10754;51.106;7.164;2023-04-25T01:58:06;6.77;;;2.97;;
21192;SDS011;10754;51.106;7.164;2023-04-25T02:00:34;10.67;;;3.60;;
21192;SDS011;10754;51.106;7.164;2023-04-25T02:03:03;5.57;;;3.33;;
21192;SDS011;10754;51.106;7.164;2023-04-25T02:05:28;5.47;;;2.87;;
21192;SDS011;10754;51.106;7.164;2023-04-25T02:07:58;6.27;;;3.00;;
21192;SDS011;10754;51.106;7.164;2023-04-25T02:10:24;8.53;;;3.60;;
21192;SDS011;10754;51.106;7.164;2023-04-25T02:12:49;8.37;;;2.90;;
21192;SDS011;10754;51.106;7.164;2023-04-25T02:15:15;7.27;;;2.80;;
21192;SDS011;10754;51.106;7.164;2023-04-25T02:17:40;6.37;;;2.53;;
21192;SDS011;10754;51.106;7.164;2023-04-25T02:20:06;6.03;;;3.50;;
21192;SDS011;10754;51.106;7.164;2023-04-25T02:22:32;4.83;;;2.63;;
21192;SDS011;10754;51.106;7.164;2023-04-25T02:24:58;7.67;;;3.43;;
21192;SDS011;10754;51.106;7.164;2023-04-25T02:27:24;5.37;;;2.90;;
21192;SDS011;10754;51.106;7.164;2023-04-25T02:29:49;9.97;;;3.80;;
21192;SDS011;10754;51.106;7.164;2023-04-25T02:32:15;6.93;;;3.27;;
21192;SDS011;10754;51.106;7.164;2023-04-25T02:34:40;7.87;;;3.43;;
21192;SDS011;10754;51.106;7.164;2023-04-25T02:37:06;5.77;;;2.83;;
21192;SDS011;10754;51.106;7.164;2023-04-25T02:39:31;7.13;;;2.87;;
21192;SDS011;10754;51.106;7.164;2023-04-25T02:41:57;5.87;;;3.37;;
21192;SDS011;10754;51.106;7.164;2023-04-25T02:44:22;8.77;;;3.17;;
21192;SDS011;10754;51.106;7.164;2023-04-25T02:46:48;8.67;;;3.03;;
21192;SDS011;10754;51.106;7.164;2023-04-25T02:49:13;5.03;;;2.30;;
21192;SDS011;10754;51.106;7.164;2023-04-25T02:51:39;10.77;;;3.53;;
21192;SDS011;10754;51.106;7.164;2023-04-25T02:54:05;4.40;;;2.57;;
21192;SDS011;10754;51.106;7.164;2023-04-25T02:56:31;8.17;;;3.23;;
21192;SDS011;10754;51.106;7.164;2023-04-25T02:58:56;4.40;;;2.97;;
21192;SDS011;10754;51.106;7.164;2023-04-25T03:01:22;6.00;;;3.20;;
21192;SDS011;10754;51.106;7.164;2023-04-25T03:03:48;5.57;;;2.63;;
21192;SDS011;10754;51.106;7.164;2023-04-25T03:06:13;7.13;;;2.60;;
21192;SDS011;10754;51.106;7.164;2023-04-25T03:08:40;6.33;;;3.60;;
21192;SDS011;10754;51.106;7.164;2023-04-25T03:11:05;5.40;;;2.83;;
21192;SDS011;10754;51.106;7.164;2023-04-25T03:13:31;5.73;;;3.10;;
21192;SDS011;10754;51.106;7.164;2023-04-25T03:15:56;6.53;;;2.90;;
21192;SDS011;10754;51.106;7.164;2023-04-25T03:18:22;5.70;;;2.90;;
21192;SDS011;10754;51.106;7.164;2023-04-25T03:20:47;7.50;;;2.87;;
21192;SDS011;10754;51.106;7.164;2023-04-25T03:23:13;8.83;;;2.87;;
21192;SDS011;10754;51.106;7.164;2023-04-25T03:25:39;4.30;;;2.40;;
21192;SDS011;10754;51.106;7.164;2023-04-25T03:28:05;5.20;;;2.73;;
21192;SDS011;10754;51.106;7.164;2023-04-25T03:30:31;7.53;;;3.03;;
21192;SDS011;10754;51.106;7.164;2023-04-25T03:32:56;4.37;;;2.50;;
21192;SDS011;10754;51.106;7.164;2023-04-25T03:35:22;6.07;;;2.70;;
21192;SDS011;10754;51.106;7.164;2023-04-25T03:37:48;6.67;;;3.03;;
21192;SDS011;10754;51.106;7.164;2023-04-25T03:40:14;4.23;;;3.00;;
21192;SDS011;10754;51.106;7.164;2023-04-25T03:42:39;6.77;;;3.00;;
21192;SDS011;10754;51.106;7.164;2023-04-25T03:45:05;5.27;;;2.40;;
21192;SDS011;10754;51.106;7.164;2023-04-25T03:47:31;5.40;;;2.73;;
21192;SDS011;10754;51.106;7.164;2023-04-25T03:49:57;7.00;;;3.30;;
21192;SDS011;10754;51.106;7.164;2023-04-25T03:52:22;5.00;;;2.43;;
21192;SDS011;10754;51.106;7.164;2023-04-25T03:54:48;4.97;;;3.00;;
21192;SDS011;10754;51.106;7.164;2023-04-25T03:57:13;6.47;;;2.90;;
21192;SDS011;10754;51.106;7.164;2023-04-25T03:59:39;5.63;;;3.13;;
21192;SDS011;10754;51.106;7.164;2023-04-25T04:02:04;6.13;;;2.60;;
21192;SDS011;10754;51.106;7.164;2023-04-25T04:04:30;3.97;;;2.47;;
21192;SDS011;10754;51.106;7.164;2023-04-25T04:06:56;6.80;;;2.50;;
21192;SDS011;10754;51.106;7.164;2023-04-25T04:09:21;3.57;;;2.40;;
21192;SDS011;10754;51.106;7.164;2023-04-25T04:11:47;3.73;;;2.70;;
21192;SDS011;10754;51.106;7.164;2023-04-25T04:14:12;4.80;;;2.40;;
21192;SDS011;10754;51.106;7.164;2023-04-25T04:16:38;5.00;;;2.63;;
21192;SDS011;10754;51.106;7.164;2023-04-25T04:19:03;7.53;;;3.13;;
21192;SDS011;10754;51.106;7.164;2023-04-25T04:21:29;3.93;;;2.27;;
21192;SDS011;10754;51.106;7.164;2023-04-25T04:23:54;3.83;;;2.37;;
21192;SDS011;10754;51.106;7.164;2023-04-25T04:26:20;5.90;;;3.00;;
21192;SDS011;10754;51.106;7.164;2023-04-25T04:28:49;6.10;;;3.23;;
21192;SDS011;10754;51.106;7.164;2023-04-25T04:31:19;6.43;;;2.90;;
21192;SDS011;10754;51.106;7.164;2023-04-25T04:33:46;5.23;;;3.40;;
21192;SDS011;10754;51.106;7.164;2023-04-25T04:36:12;5.53;;;3.13;;
21192;SDS011;10754;51.106;7.164;2023-04-25T04:38:38;8.73;;;3.97;;
21192;SDS011;10754;51.106;7.164;2023-04-25T04:41:05;7.10;;;3.53;;
21192;SDS011;10754;51.106;7.164;2023-04-25T04:43:31;8.80;;;3.87;;
21192;SDS011;10754;51.106;7.164;2023-04-25T04:45:58;6.30;;;3.43;;
21192;SDS011;10754;51.106;7.164;2023-04-25T04:48:25;6.87;;;3.77;;
21192;SDS011;10754;51.106;7.164;2023-04-25T04:50:51;6.63;;;3.50;;
21192;SDS011;10754;51.106;7.164;2023-04-25T04:53:16;6.77;;;3.53;;
21192;SDS011;10754;51.106;7.164;2023-04-25T04:55:42;8.73;;;3.70;;
21192;SDS011;10754;51.106;7.164;2023-04-25T04:58:08;4.77;;;3.73;;
21192;SDS011;10754;51.106;7.164;2023-04-25T05:00:33;7.07;;;3.80;;
21192;SDS011;10754;51.106;7.164;2023-04-25T05:02:59;9.33;;;3.77;;
21192;SDS011;10754;51.106;7.164;2023-04-25T05:05:25;7.80;;;3.63;;
21192;SDS011;10754;51.106;7.164;2023-04-25T05:07:50;7.97;;;3.40;;
21192;SDS011;10754;51.106;7.164;2023-04-25T05:10:16;5.40;;;3.20;;
21192;SDS011;10754;51.106;7.164;2023-04-25T05:12:43;6.97;;;3.60;;
21192;SDS011;10754;51.106;7.164;2023-04-25T05:15:09;7.87;;;3.90;;
21192;SDS011;10754;51.106;7.164;2023-04-25T05:17:34;7.27;;;3.33;;
21192;SDS011;10754;51.106;7.164;2023-04-25T05:20:00;7.07;;;3.27;;
21192;SDS011;10754;51.106;7.164;2023-04-25T05:22:26;6.63;;;2.97;;
21192;SDS011;10754;51.106;7.164;2023-04-25T05:24:52;8.20;;;3.23;;
21192;SDS011;10754;51.106;7.164;2023-04-25T05:27:18;7.87;;;3.50;;
21192;SDS011;10754;51.106;7.164;2023-04-25T05:29:45;8.87;;;3.13;;
21192;SDS011;10754;51.106;7.164;2023-04-25T05:32:10;9.57;;;3.20;;
21192;SDS011;10754;51.106;7.164;2023-04-25T05:34:36;7.90;;;3.23;;
21192;SDS011;10754;51.106;7.164;2023-04-25T05:37:01;8.60;;;4.17;;
21192;SDS011;10754;51.106;7.164;2023-04-25T05:39:27;8.23;;;3.83;;
21192;SDS011;10754;51.106;7.164;2023-04-25T05:41:53;8.77;;;3.63;;
21192;SDS011;10754;51.106;7.164;2023-04-25T05:44:18;8.90;;;3.57;;
21192;SDS011;10754;51.106;7.164;2023-04-25T05:46:44;7.80;;;3.80;;
21192;SDS011;10754;51.106;7.164;2023-04-25T05:49:09;7.03;;;3.50;;
21192;SDS011;10754;51.106;7.164;2023-04-25T05:51:35;9.63;;;3.67;;
21192;SDS011;10754;51.106;7.164;2023-04-25T05:54:01;11.00;;;3.90;;
21192;SDS011;10754;51.106;7.164;2023-04-25T05:56:26;10.33;;;4.33;;
21192;SDS011;10754;51.106;7.164;2023-04-25T05:58:52;8.87;;;4.10;;
21192;SDS011;10754;51.106;7.164;2023-04-25T06:01:18;8.90;;;3.47;;
21192;SDS011;10754;51.106;7.164;2023-04-25T06:03:43;9.20;;;4.30;;
21192;SDS011;10754;51.106;7.164;2023-04-25T06:06:10;9.17;;;4.00;;
21192;SDS011;10754;51.106;7.164;2023-04-25T06:08:36;10.40;;;4.20;;
21192;SDS011;10754;51.106;7.164;2023-04-25T06:11:03;7.67;;;4.00;;
21192;SDS011;10754;51.106;7.164;2023-04-25T06:13:29;8.50;;;3.70;;
21192;SDS011;10754;51.106;7.164;2023-04-25T06:15:54;10.27;;;4.67;;
21192;SDS011;10754;51.106;7.164;2023-04-25T06:18:20;9.50;;;5.63;;
21192;SDS011;10754;51.106;7.164;2023-04-25T06:20:46;9.87;;;4.23;;
21192;SDS011;10754;51.106;7.164;2023-04-25T06:23:11;7.90;;;3.93;;
21192;SDS011;10754;51.106;7.164;2023-04-25T06:25:36;9.97;;;3.80;;
21192;SDS011;10754;51.106;7.164;2023-04-25T06:28:02;8.90;;;4.03;;
21192;SDS011;10754;51.106;7.164;2023-04-25T06:30:28;12.53;;;4.70;;
21192;SDS011;10754;51.106;7.164;2023-04-25T06:32:53;10.07;;;4.93;;
21192;SDS011;10754;51.106;7.164;2023-04-25T06:35:19;8.03;;;3.67;;
21192;SDS011;10754;51.106;7.164;2023-04-25T06:37:44;11.53;;;4.23;;
21192;SDS011;10754;51.106;7.164;2023-04-25T06:40:10;10.90;;;4.30;;
21192;SDS011;10754;51.106;7.164;2023-04-25T06:42:36;9.83;;;3.97;;
21192;SDS011;10754;51.106;7.164;2023-04-25T06:45:01;8.67;;;3.93;;
21192;SDS011;10754;51.106;7.164;2023-04-25T06:47:27;10.03;;;3.97;;
21192;SDS011;10754;51.106;7.164;2023-04-25T06:49:54;10.70;;;4.50;;
21192;SDS011;10754;51.106;7.164;2023-04-25T06:52:20;11.70;;;4.40;;
21192;SDS011;10754;51.106;7.164;2023-04-25T06:54:45;10.47;;;4.00;;
21192;SDS011;10754;51.106;7.164;2023-04-25T06:57:11;11.07;;;4.20;;
21192;SDS011;10754;51.106;7.164;2023-04-25T06:59:37;12.57;;;3.72;;
21192;SDS011;10754;51.106;7.164;2023-04-25T07:02:02;8.57;;;3.40;;
21192;SDS011;10754;51.106;7.164;2023-04-25T07:04:28;10.20;;;3.63;;
21192;SDS011;10754;51.106;7.164;2023-04-25T07:06:55;13.63;;;3.47;;
21192;SDS011;10754;51.106;7.164;2023-04-25T07:09:21;12.37;;;3.93;;
21192;SDS011;10754;51.106;7.164;2023-04-25T07:11:46;9.52;;;3.28;;
21192;SDS011;10754;51.106;7.164;2023-04-25T07:14:12;13.30;;;4.33;;
21192;SDS011;10754;51.106;7.164;2023-04-25T07:16:37;13.60;;;4.32;;
21192;SDS011;10754;51.106;7.164;2023-04-25T07:19:03;9.03;;;3.10;;
21192;SDS011;10754;51.106;7.164;2023-04-25T07:21:28;9.27;;;3.27;;
21192;SDS011;10754;51.106;7.164;2023-04-25T07:23:56;6.70;;;3.07;;
21192;SDS011;10754;51.106;7.164;2023-04-25T07:26:22;7.20;;;2.72;;
21192;SDS011;10754;51.106;7.164;2023-04-25T07:28:47;8.57;;;2.87;;
21192;SDS011;10754;51.106;7.164;2023-04-25T07:31:15;8.03;;;2.73;;
21192;SDS011;10754;51.106;7.164;2023-04-25T07:33:42;5.60;;;2.40;;
21192;SDS011;10754;51.106;7.164;2023-04-25T07:36:09;8.35;;;2.72;;
21192;SDS011;10754;51.106;7.164;2023-04-25T07:38:35;10.70;;;3.30;;
21192;SDS011;10754;51.106;7.164;2023-04-25T07:41:00;5.93;;;3.07;;
21192;SDS011;10754;51.106;7.164;2023-04-25T07:43:26;5.50;;;3.00;;
21192;SDS011;10754;51.106;7.164;2023-04-25T07:45:51;9.23;;;2.87;;
21192;SDS011;10754;51.106;7.164;2023-04-25T07:48:17;8.27;;;2.70;;
21192;SDS011;10754;51.106;7.164;2023-04-25T07:50:43;10.55;;;2.70;;
21192;SDS011;10754;51.106;7.164;2023-04-25T07:53:09;6.10;;;2.72;;
21192;SDS011;10754;51.106;7.164;2023-04-25T07:55:35;8.60;;;3.10;;
21192;SDS011;10754;51.106;7.164;2023-04-25T07:58:01;6.20;;;2.77;;
21192;SDS011;10754;51.106;7.164;2023-04-25T08:00:28;8.30;;;2.70;;
21192;SDS011;10754;51.106;7.164;2023-04-25T08:02:54;7.72;;;2.65;;
21192;SDS011;10754;51.106;7.164;2023-04-25T08:05:19;7.40;;;2.50;;
21192;SDS011;10754;51.106;7.164;2023-04-25T08:07:45;7.32;;;2.70;;
21192;SDS011;10754;51.106;7.164;2023-04-25T08:10:10;6.47;;;2.70;;
21192;SDS011;10754;51.106;7.164;2023-04-25T08:12:36;6.97;;;2.70;;
21192;SDS011;10754;51.106;7.164;2023-04-25T08:15:01;8.52;;;2.50;;
21192;SDS011;10754;51.106;7.164;2023-04-25T08:17:27;4.75;;;2.28;;
21192;SDS011;10754;51.106;7.164;2023-04-25T08:19:52;5.18;;;2.72;;
21192;SDS011;10754;51.106;7.164;2023-04-25T08:22:18;11.25;;;2.85;;
21192;SDS011;10754;51.106;7.164;2023-04-25T08:24:43;4.23;;;2.27;;
21192;SDS011;10754;51.106;7.164;2023-04-25T08:27:09;9.13;;;3.03;;
21192;SDS011;10754;51.106;7.164;2023-04-25T08:29:34;8.52;;;2.55;;
21192;SDS011;10754;51.106;7.164;2023-04-25T08:32:00;8.53;;;2.60;;
21192;SDS011;10754;51.106;7.164;2023-04-25T08:34:26;5.45;;;2.38;;
21192;SDS011;10754;51.106;7.164;2023-04-25T08:36:51;5.40;;;2.63;;
21192;SDS011;10754;51.106;7.164;2023-04-25T08:39:17;5.28;;;2.40;;
21192;SDS011;10754;51.106;7.164;2023-04-25T08:41:43;6.80;;;2.50;;
21192;SDS011;10754;51.106;7.164;2023-04-25T08:44:09;6.20;;;2.97;;
21192;SDS011;10754;51.106;7.164;2023-04-25T08:46:37;7.40;;;2.77;;
21192;SDS011;10754;51.106;7.164;2023-04-25T08:49:05;7.18;;;2.35;;
21192;SDS011;10754;51.106;7.164;2023-04-25T08:51:32;5.73;;;1.93;;
21192;SDS011;10754;51.106;7.164;2023-04-25T08:54:07;7.33;;;2.73;;
21192;SDS011;10754;51.106;7.164;2023-04-25T08:56:35;6.35;;;2.42;;
21192;SDS011;10754;51.106;7.164;2023-04-25T08:59:02;7.30;;;2.40;;
21192;SDS011;10754;51.106;7.164;2023-04-25T09:01:28;5.17;;;2.10;;
21192;SDS011;10754;51.106;7.164;2023-04-25T09:03:53;4.03;;;2.13;;
21192;SDS011;10754;51.106;7.164;2023-04-25T09:06:19;7.10;;;2.33;;
21192;SDS011;10754;51.106;7.164;2023-04-25T09:08:45;5.87;;;2.17;;
21192;SDS011;10754;51.106;7.164;2023-04-25T09:11:12;7.15;;;2.30;;
21192;SDS011;10754;51.106;7.164;2023-04-25T09:13:38;5.70;;;1.97;;
21192;SDS011;10754;51.106;7.164;2023-04-25T09:16:03;9.13;;;2.80;;
21192;SDS011;10754;51.106;7.164;2023-04-25T09:18:33;5.45;;;2.10;;
21192;SDS011;10754;51.106;7.164;2023-04-25T09:21:07;7.80;;;2.03;;
21192;SDS011;10754;51.106;7.164;2023-04-25T09:26:18;5.10;;;2.17;;
21192;SDS011;10754;51.106;7.164;2023-04-25T09:28:45;6.00;;;2.20;;
21192;SDS011;10754;51.106;7.164;2023-04-25T09:31:20;3.40;;;2.08;;
21192;SDS011;10754;51.106;7.164;2023-04-25T09:33:49;6.13;;;2.00;;
21192;SDS011;10754;51.106;7.164;2023-04-25T09:36:15;5.32;;;2.00;;
21192;SDS011;10754;51.106;7.164;2023-04-25T09:38:41;6.65;;;2.55;;
21192;SDS011;10754;51.106;7.164;2023-04-25T09:41:07;5.40;;;1.90;;
21192;SDS011;10754;51.106;7.164;2023-04-25T09:43:34;4.95;;;2.05;;
21192;SDS011;10754;51.106;7.164;2023-04-25T09:46:00;6.65;;;3.10;;
21192;SDS011;10754;51.106;7.164;2023-04-25T09:48:26;5.03;;;1.83;;
21192;SDS011;10754;51.106;7.164;2023-04-25T09:51:05;3.70;;;1.70;;
21192;SDS011;10754;51.106;7.164;2023-04-25T09:53:33;4.43;;;1.93;;
21192;SDS011;10754;51.106;7.164;2023-04-25T09:56:06;4.53;;;1.67;;
21192;SDS011;10754;51.106;7.164;2023-04-25T09:58:33;4.45;;;1.83;;
21192;SDS011;10754;51.106;7.164;2023-04-25T10:01:04;3.35;;;2.00;;
21192;SDS011;10754;51.106;7.164;2023-04-25T10:03:31;7.15;;;2.58;;
21192;SDS011;10754;51.106;7.164;2023-04-25T10:06:05;5.15;;;1.60;;
21192;SDS011;10754;51.106;7.164;2023-04-25T10:08:34;3.80;;;1.50;;
21192;SDS011;10754;51.106;7.164;2023-04-25T10:11:02;3.72;;;1.67;;
21192;SDS011;10754;51.106;7.164;2023-04-25T10:13:29;5.68;;;1.90;;
21192;SDS011;10754;51.106;7.164;2023-04-25T10:15:59;5.60;;;2.22;;
21192;SDS011;10754;51.106;7.164;2023-04-25T10:18:26;4.20;;;2.10;;
21192;SDS011;10754;51.106;7.164;2023-04-25T10:20:56;6.25;;;2.33;;
21192;SDS011;10754;51.106;7.164;2023-04-25T10:23:24;4.45;;;2.30;;
21192;SDS011;10754;51.106;7.164;2023-04-25T10:25:51;4.50;;;1.83;;
21192;SDS011;10754;51.106;7.164;2023-04-25T10:28:17;3.58;;;2.00;;
21192;SDS011;10754;51.106;7.164;2023-04-25T10:30:56;3.90;;;1.73;;
21192;SDS011;10754;51.106;7.164;2023-04-25T10:33:29;3.95;;;1.92;;
21192;SDS011;10754;51.106;7.164;2023-04-25T10:36:07;4.30;;;2.30;;
21192;SDS011;10754;51.106;7.164;2023-04-25T10:38:42;6.15;;;2.47;;
21192;SDS011;10754;51.106;7.164;2023-04-25T10:41:09;3.40;;;1.45;;
21192;SDS011;10754;51.106;7.164;2023-04-25T10:43:43;5.03;;;1.70;;
21192;SDS011;10754;51.106;7.164;2023-04-25T10:46:19;5.80;;;1.80;;
21192;SDS011;10754;51.106;7.164;2023-04-25T10:48:49;3.63;;;1.20;;
21192;SDS011;10754;51.106;7.164;2023-04-25T10:51:17;5.05;;;1.80;;
21192;SDS011;10754;51.106;7.164;2023-04-25T10:53:57;5.95;;;1.63;;
21192;SDS011;10754;51.106;7.164;2023-04-25T11:01:35;4.18;;;1.73;;
21192;SDS011;10754;51.106;7.164;2023-04-25T11:04:02;3.03;;;1.38;;
21192;SDS011;10754;51.106;7.164;2023-04-25T11:06:29;3.67;;;1.65;;
21192;SDS011;10754;51.106;7.164;2023-04-25T11:08:57;5.20;;;2.15;;
21192;SDS011;10754;51.106;7.164;2023-04-25T11:11:26;4.32;;;1.88;;
21192;SDS011;10754;51.106;7.164;2023-04-25T11:13:51;4.05;;;1.95;;
21192;SDS011;10754;51.106;7.164;2023-04-25T11:16:17;3.58;;;1.20;;
21192;SDS011;10754;51.106;7.164;2023-04-25T11:18:43;4.28;;;2.10;;
21192;SDS011;10754;51.106;7.164;2023-04-25T11:21:09;3.08;;;1.13;;
21192;SDS011;10754;51.106;7.164;2023-04-25T11:23:35;2.75;;;1.27;;
21192;SDS011;10754;51.106;7.164;2023-04-25T11:26:02;5.38;;;1.30;;
21192;SDS011;10754;51.106;7.164;2023-04-25T11:28:28;6.82;;;1.92;;
21192;SDS011;10754;51.106;7.164;2023-04-25T11:30:53;3.17;;;1.38;;
21192;SDS011;10754;51.106;7.164;2023-04-25T11:33:22;3.15;;;1.38;;
21192;SDS011;10754;51.106;7.164;2023-04-25T11:35:49;2.33;;;1.17;;
21192;SDS011;10754;51.106;7.164;2023-04-25T11:38:17;2.25;;;1.20;;
21192;SDS011;10754;51.106;7.164;2023-04-25T11:40:43;4.10;;;1.02;;
21192;SDS011;10754;51.106;7.164;2023-04-25T11:43:08;2.33;;;1.17;;
21192;SDS011;10754;51.106;7.164;2023-04-25T11:45:36;1.95;;;0.95;;
21192;SDS011;10754;51.106;7.164;2023-04-25T11:48:02;2.97;;;1.02;;
21192;SDS011;10754;51.106;7.164;2023-04-25T11:50:28;3.78;;;1.08;;
21192;SDS011;10754;51.106;7.164;2023-04-25T11:52:55;1.90;;;1.00;;
21192;SDS011;10754;51.106;7.164;2023-04-25T11:55:21;2.72;;;1.08;;
21192;SDS011;10754;51.106;7.164;2023-04-25T11:57:48;2.55;;;0.95;;
21192;SDS011;10754;51.106;7.164;2023-04-25T12:00:15;2.65;;;1.00;;
21192;SDS011;10754;51.106;7.164;2023-04-25T12:02:43;4.05;;;1.15;;
21192;SDS011;10754;51.106;7.164;2023-04-25T12:05:10;2.95;;;1.40;;
21192;SDS011;10754;51.106;7.164;2023-04-25T12:07:37;2.08;;;1.13;;
21192;SDS011;10754;51.106;7.164;2023-04-25T12:10:10;3.17;;;1.05;;
21192;SDS011;10754;51.106;7.164;2023-04-25T12:12:37;3.10;;;1.42;;
21192;SDS011;10754;51.106;7.164;2023-04-25T12:15:12;2.60;;;1.00;;
21192;SDS011;10754;51.106;7.164;2023-04-25T12:17:45;3.33;;;1.35;;
21192;SDS011;10754;51.106;7.164;2023-04-25T12:20:13;2.45;;;0.82;;
21192;SDS011;10754;51.106;7.164;2023-04-25T12:22:57;1.75;;;0.90;;
21192;SDS011;10754;51.106;7.164;2023-04-25T12:25:35;4.53;;;1.27;;
21192;SDS011;10754;51.106;7.164;2023-04-25T12:28:10;3.20;;;1.35;;
21192;SDS011;10754;51.106;7.164;2023-04-25T12:33:25;3.50;;;1.10;;
21192;SDS011;10754;51.106;7.164;2023-04-25T12:35:52;4.03;;;1.20;;
21192;SDS011;10754;51.106;7.164;2023-04-25T12:38:22;3.47;;;1.10;;
21192;SDS011;10754;51.106;7.164;2023-04-25T12:40:55;3.33;;;1.33;;
21192;SDS011;10754;51.106;7.164;2023-04-25T12:43:22;4.40;;;1.35;;
21192;SDS011;10754;51.106;7.164;2023-04-25T12:45:51;2.33;;;1.38;;
21192;SDS011;10754;51.106;7.164;2023-04-25T12:48:18;5.00;;;1.77;;
21192;SDS011;10754;51.106;7.164;2023-04-25T12:50:45;3.90;;;1.38;;
21192;SDS011;10754;51.106;7.164;2023-04-25T12:53:13;4.32;;;1.58;;
21192;SDS011;10754;51.106;7.164;2023-04-25T12:55:39;3.75;;;1.13;;
21192;SDS011;10754;51.106;7.164;2023-04-25T12:58:05;3.85;;;1.40;;
21192;SDS011;10754;51.106;7.164;2023-04-25T13:00:31;2.78;;;1.48;;
21192;SDS011;10754;51.106;7.164;2023-04-25T13:02:56;3.88;;;1.42;;
21192;SDS011;10754;51.106;7.164;2023-04-25T13:05:22;4.00;;;1.15;;
21192;SDS011;10754;51.106;7.164;2023-04-25T13:07:47;3.33;;;0.98;;
21192;SDS011;10754;51.106;7.164;2023-04-25T13:10:13;4.30;;;1.20;;
21192;SDS011;10754;51.106;7.164;2023-04-25T13:12:39;5.53;;;1.77;;
21192;SDS011;10754;51.106;7.164;2023-04-25T13:15:05;4.72;;;1.58;;
21192;SDS011;10754;51.106;7.164;2023-04-25T13:17:31;4.03;;;1.55;;
21192;SDS011;10754;51.106;7.164;2023-04-25T13:19:57;3.88;;;1.25;;
21192;SDS011;10754;51.106;7.164;2023-04-25T13:22:22;3.88;;;1.60;;
21192;SDS011;10754;51.106;7.164;2023-04-25T13:24:48;3.72;;;1.60;;
21192;SDS011;10754;51.106;7.164;2023-04-25T13:27:13;3.63;;;1.40;;
21192;SDS011;10754;51.106;7.164;2023-04-25T13:29:39;5.55;;;1.48;;
21192;SDS011;10754;51.106;7.164;2023-04-25T13:32:05;4.22;;;1.98;;
21192;SDS011;10754;51.106;7.164;2023-04-25T13:34:31;3.05;;;1.50;;
21192;SDS011;10754;51.106;7.164;2023-04-25T13:36:57;2.53;;;1.95;;
21192;SDS011;10754;51.106;7.164;2023-04-25T13:39:23;2.97;;;1.30;;
21192;SDS011;10754;51.106;7.164;2023-04-25T13:41:48;3.33;;;1.75;;
21192;SDS011;10754;51.106;7.164;2023-04-25T13:44:13;4.00;;;2.00;;
21192;SDS011;10754;51.106;7.164;2023-04-25T13:46:39;3.72;;;2.05;;
21192;SDS011;10754;51.106;7.164;2023-04-25T13:49:05;2.80;;;1.58;;
21192;SDS011;10754;51.106;7.164;2023-04-25T13:51:30;4.68;;;1.80;;
21192;SDS011;10754;51.106;7.164;2023-04-25T13:53:56;3.35;;;1.60;;
21192;SDS011;10754;51.106;7.164;2023-04-25T13:56:22;2.67;;;1.60;;
21192;SDS011;10754;51.106;7.164;2023-04-25T13:58:48;4.00;;;1.50;;
21192;SDS011;10754;51.106;7.164;2023-04-25T14:01:17;2.20;;;1.33;;
21192;SDS011;10754;51.106;7.164;2023-04-25T14:03:43;3.90;;;1.38;;
21192;SDS011;10754;51.106;7.164;2023-04-25T14:06:10;3.65;;;1.92;;
21192;SDS011;10754;51.106;7.164;2023-04-25T14:08:37;4.38;;;1.65;;
21192;SDS011;10754;51.106;7.164;2023-04-25T14:11:03;3.30;;;1.35;;
21192;SDS011;10754;51.106;7.164;2023-04-25T14:13:28;4.30;;;1.48;;
21192;SDS011;10754;51.106;7.164;2023-04-25T14:15:54;3.50;;;1.75;;
21192;SDS011;10754;51.106;7.164;2023-04-25T14:18:20;4.75;;;1.45;;
21192;SDS011;10754;51.106;7.164;2023-04-25T14:20:45;4.10;;;1.90;;
21192;SDS011;10754;51.106;7.164;2023-04-25T14:23:11;2.40;;;1.25;;
21192;SDS011;10754;51.106;7.164;2023-04-25T14:25:37;3.67;;;1.35;;
21192;SDS011;10754;51.106;7.164;2023-04-25T14:28:03;2.30;;;1.30;;
21192;SDS011;10754;51.106;7.164;2023-04-25T14:30:28;3.33;;;1.33;;
21192;SDS011;10754;51.106;7.164;2023-04-25T14:32:54;2.10;;;1.00;;
21192;SDS011;10754;51.106;7.164;2023-04-25T14:35:20;3.20;;;1.08;;
21192;SDS011;10754;51.106;7.164;2023-04-25T14:37:46;4.22;;;1.20;;
21192;SDS011;10754;51.106;7.164;2023-04-25T14:40:12;2.47;;;0.90;;
21192;SDS011;10754;51.106;7.164;2023-04-25T14:42:40;2.30;;;1.05;;
21192;SDS011;10754;51.106;7.164;2023-04-25T14:45:06;3.30;;;0.98;;
21192;SDS011;10754;51.106;7.164;2023-04-25T14:47:33;1.55;;;0.70;;
21192;SDS011;10754;51.106;7.164;2023-04-25T14:50:02;2.60;;;1.20;;
21192;SDS011;10754;51.106;7.164;2023-04-25T14:52:27;2.15;;;0.90;;
21192;SDS011;10754;51.106;7.164;2023-04-25T14:54:53;2.03;;;1.00;;